Terminal Aerodrome Forecast
Issued by NWS Wakefield, VA

Home | Current Version | Previous Version | Text Only | Print | Product List | Glossary On
Versions: 1 2 3 4 5 6 7 8 9 10 11 12 13 14 15 16 17 18 19 20 21 22 23 24
000
FTUS41 KAKQ 021700
TAFORF
TAF
KORF 021728Z 0218/0318 01013G20KT P6SM SCT050 BKN150
     FM022300 03010KT P6SM SCT250
     FM030800 05006KT P6SM BKN120 BKN200
     FM031700 10006KT P6SM BKN050 OVC120=

USA.gov is the U.S. government's official web portal to all federal, state and local government web resources and services.